sensor_id;sensor_type;location;lat;lon;timestamp;temperature;humidity
38241;DHT22;24037;49.536;8.500;2023-03-02T00:01:26;-0.40;99.90
38241;DHT22;24037;49.536;8.500;2023-03-02T00:03:52;-0.40;99.90
38241;DHT22;24037;49.536;8.500;2023-03-02T00:06:18;-0.40;99.90
38241;DHT22;24037;49.536;8.500;2023-03-02T00:08:44;-0.40;99.90
38241;DHT22;24037;49.536;8.500;2023-03-02T00:11:11;-0.30;99.90
38241;DHT22;24037;49.536;8.500;2023-03-02T00:13:40;-0.20;99.90
38241;DHT22;24037;49.536;8.500;2023-03-02T00:16:06;-0.10;99.90
38241;DHT22;24037;49.536;8.500;2023-03-02T00:18:32;0.00;99.90
38241;DHT22;24037;49.536;8.500;2023-03-02T00:20:58;0.10;99.90
38241;DHT22;24037;49.536;8.500;2023-03-02T00:23:24;0.00;99.90
38241;DHT22;24037;49.536;8.500;2023-03-02T00:25:50;0.00;99.90
38241;DHT22;24037;49.536;8.500;2023-03-02T00:28:16;0.00;99.90
38241;DHT22;24037;49.536;8.500;2023-03-02T00:30:42;0.00;99.90
38241;DHT22;24037;49.536;8.500;2023-03-02T00:33:08;0.00;99.90
38241;DHT22;24037;49.536;8.500;2023-03-02T00:35:37;-0.10;99.90
38241;DHT22;24037;49.536;8.500;2023-03-02T00:38:03;-0.30;99.90
38241;DHT22;24037;49.536;8.500;2023-03-02T00:40:29;-0.40;99.90
38241;DHT22;24037;49.536;8.500;2023-03-02T00:42:55;-0.50;99.90
38241;DHT22;24037;49.536;8.500;2023-03-02T00:45:21;-0.60;99.90
38241;DHT22;24037;49.536;8.500;2023-03-02T00:47:47;-0.60;99.90
38241;DHT22;24037;49.536;8.500;2023-03-02T00:50:13;-0.70;99.90
38241;DHT22;24037;49.536;8.500;2023-03-02T00:52:39;-0.80;99.90
38241;DHT22;24037;49.536;8.500;2023-03-02T00:55:05;-0.90;99.90
38241;DHT22;24037;49.536;8.500;2023-03-02T00:57:31;-0.90;99.90
38241;DHT22;24037;49.536;8.500;2023-03-02T00:59:58;-1.00;99.90
38241;DHT22;24037;49.536;8.500;2023-03-02T01:02:32;-1.10;99.90
38241;DHT22;24037;49.536;8.500;2023-03-02T01:04:58;-1.00;99.90
38241;DHT22;24037;49.536;8.500;2023-03-02T01:07:25;-0.90;99.90
38241;DHT22;24037;49.536;8.500;2023-03-02T01:09:53;-0.80;99.90
38241;DHT22;24037;49.536;8.500;2023-03-02T01:12:19;-0.70;99.90
38241;DHT22;24037;49.536;8.500;2023-03-02T01:14:46;-0.70;99.90
38241;DHT22;24037;49.536;8.500;2023-03-02T01:17:13;-0.70;99.90
38241;DHT22;24037;49.536;8.500;2023-03-02T01:19:39;-0.60;99.90
38241;DHT22;24037;49.536;8.500;2023-03-02T01:22:05;-0.30;99.90
38241;DHT22;24037;49.536;8.500;2023-03-02T01:24:32;-0.30;99.90
38241;DHT22;24037;49.536;8.500;2023-03-02T01:26:58;-0.40;99.90
38241;DHT22;24037;49.536;8.500;2023-03-02T01:29:24;-0.50;99.90
38241;DHT22;24037;49.536;8.500;2023-03-02T01:31:50;-0.50;99.90
38241;DHT22;24037;49.536;8.500;2023-03-02T01:34:16;-0.60;99.90
38241;DHT22;24037;49.536;8.500;2023-03-02T01:36:43;-0.50;99.90
38241;DHT22;24037;49.536;8.500;2023-03-02T01:39:12;-0.50;99.90
38241;DHT22;24037;49.536;8.500;2023-03-02T01:41:42;-0.50;99.90
38241;DHT22;24037;49.536;8.500;2023-03-02T01:44:31;-0.40;99.90
38241;DHT22;24037;49.536;8.500;2023-03-02T01:46:54;-0.30;99.90
38241;DHT22;24037;49.536;8.500;2023-03-02T01:49:21;-0.40;99.90
38241;DHT22;24037;49.536;8.500;2023-03-02T01:51:58;-0.40;99.90
38241;DHT22;24037;49.536;8.500;2023-03-02T01:54:25;-0.40;99.90
38241;DHT22;24037;49.536;8.500;2023-03-02T01:56:54;-0.30;99.90
38241;DHT22;24037;49.536;8.500;2023-03-02T01:59:21;-0.10;99.90
38241;DHT22;24037;49.536;8.500;2023-03-02T02:01:50;-0.10;99.90
38241;DHT22;24037;49.536;8.500;2023-03-02T02:04:17;-0.10;99.90
38241;DHT22;24037;49.536;8.500;2023-03-02T02:06:48;-0.20;99.90
38241;DHT22;24037;49.536;8.500;2023-03-02T02:09:16;-0.50;99.90
38241;DHT22;24037;49.536;8.500;2023-03-02T02:11:43;-0.60;99.90
38241;DHT22;24037;49.536;8.500;2023-03-02T02:14:09;-0.80;99.90
38241;DHT22;24037;49.536;8.500;2023-03-02T02:16:35;-1.00;99.90
38241;DHT22;24037;49.536;8.500;2023-03-02T02:19:03;-1.00;99.90
38241;DHT22;24037;49.536;8.500;2023-03-02T02:21:30;-1.20;99.90
38241;DHT22;24037;49.536;8.500;2023-03-02T02:24:11;-1.30;99.90
38241;DHT22;24037;49.536;8.500;2023-03-02T02:26:40;-1.30;99.90
38241;DHT22;24037;49.536;8.500;2023-03-02T02:29:09;-1.30;99.90
38241;DHT22;24037;49.536;8.500;2023-03-02T02:31:45;-1.30;99.90
38241;DHT22;24037;49.536;8.500;2023-03-02T02:34:17;-1.30;99.90
38241;DHT22;24037;49.536;8.500;2023-03-02T02:36:49;-1.20;99.90
38241;DHT22;24037;49.536;8.500;2023-03-02T02:39:20;-1.30;99.90
38241;DHT22;24037;49.536;8.500;2023-03-02T02:41:46;-1.20;99.90
38241;DHT22;24037;49.536;8.500;2023-03-02T02:44:15;-1.00;99.90
38241;DHT22;24037;49.536;8.500;2023-03-02T02:46:42;-0.90;99.90
38241;DHT22;24037;49.536;8.500;2023-03-02T02:49:13;-0.80;99.90
38241;DHT22;24037;49.536;8.500;2023-03-02T02:51:42;-0.70;99.90
38241;DHT22;24037;49.536;8.500;2023-03-02T02:54:09;-0.70;99.90
38241;DHT22;24037;49.536;8.500;2023-03-02T02:56:37;-0.70;99.90
38241;DHT22;24037;49.536;8.500;2023-03-02T02:59:06;-0.70;99.90
38241;DHT22;24037;49.536;8.500;2023-03-02T03:01:35;-0.70;99.90
38241;DHT22;24037;49.536;8.500;2023-03-02T03:04:03;-0.70;99.90
38241;DHT22;24037;49.536;8.500;2023-03-02T03:06:31;-0.70;99.90
38241;DHT22;24037;49.536;8.500;2023-03-02T03:09:07;-0.70;99.90
38241;DHT22;24037;49.536;8.500;2023-03-02T03:11:42;-0.70;99.90
38241;DHT22;24037;49.536;8.500;2023-03-02T03:14:13;-0.70;99.90
38241;DHT22;24037;49.536;8.500;2023-03-02T03:16:42;-0.70;99.90
38241;DHT22;24037;49.536;8.500;2023-03-02T03:19:15;-0.70;99.90
38241;DHT22;24037;49.536;8.500;2023-03-02T03:21:43;-0.80;99.90
38241;DHT22;24037;49.536;8.500;2023-03-02T03:24:10;-0.80;99.90
38241;DHT22;24037;49.536;8.500;2023-03-02T03:26:36;-0.90;99.90
38241;DHT22;24037;49.536;8.500;2023-03-02T03:29:02;-0.90;99.90
38241;DHT22;24037;49.536;8.500;2023-03-02T03:31:29;-1.00;99.90
38241;DHT22;24037;49.536;8.500;2023-03-02T03:33:56;-1.00;99.90
38241;DHT22;24037;49.536;8.500;2023-03-02T03:36:29;-1.10;99.90
38241;DHT22;24037;49.536;8.500;2023-03-02T03:38:55;-1.20;99.90
38241;DHT22;24037;49.536;8.500;2023-03-02T03:41:22;-1.30;99.90
38241;DHT22;24037;49.536;8.500;2023-03-02T03:43:48;-1.40;99.90
38241;DHT22;24037;49.536;8.500;2023-03-02T03:46:15;-1.40;99.90
38241;DHT22;24037;49.536;8.500;2023-03-02T03:48:41;-1.50;99.90
38241;DHT22;24037;49.536;8.500;2023-03-02T03:51:09;-1.50;99.90
38241;DHT22;24037;49.536;8.500;2023-03-02T03:53:35;-1.60;99.90
38241;DHT22;24037;49.536;8.500;2023-03-02T03:56:03;-1.70;99.90
38241;DHT22;24037;49.536;8.500;2023-03-02T03:58:29;-1.70;99.90
38241;DHT22;24037;49.536;8.500;2023-03-02T04:00:57;-1.70;99.90
38241;DHT22;24037;49.536;8.500;2023-03-02T04:03:23;-1.70;99.90
38241;DHT22;24037;49.536;8.500;2023-03-02T04:05:50;-1.80;1.00
38241;DHT22;24037;49.536;8.500;2023-03-02T04:08:17;-1.80;1.00
38241;DHT22;24037;49.536;8.500;2023-03-02T04:10:43;-1.80;1.00
38241;DHT22;24037;49.536;8.500;2023-03-02T04:13:10;-1.80;1.00
38241;DHT22;24037;49.536;8.500;2023-03-02T04:15:36;-1.90;1.00
38241;DHT22;24037;49.536;8.500;2023-03-02T04:18:02;-1.90;1.00
38241;DHT22;24037;49.536;8.500;2023-03-02T04:20:30;-2.00;1.00
38241;DHT22;24037;49.536;8.500;2023-03-02T04:22:56;-2.00;1.00
38241;DHT22;24037;49.536;8.500;2023-03-02T04:25:24;-2.10;1.00
38241;DHT22;24037;49.536;8.500;2023-03-02T04:27:54;-2.10;1.00
38241;DHT22;24037;49.536;8.500;2023-03-02T04:30:23;-2.10;1.00
38241;DHT22;24037;49.536;8.500;2023-03-02T04:32:50;-2.20;1.00
38241;DHT22;24037;49.536;8.500;2023-03-02T04:35:16;-2.10;1.00
38241;DHT22;24037;49.536;8.500;2023-03-02T04:37:42;-2.10;1.00
38241;DHT22;24037;49.536;8.500;2023-03-02T04:40:08;-2.10;1.00
38241;DHT22;24037;49.536;8.500;2023-03-02T04:42:36;-2.00;1.00
38241;DHT22;24037;49.536;8.500;2023-03-02T04:45:02;-2.00;1.00
38241;DHT22;24037;49.536;8.500;2023-03-02T04:47:28;-2.00;1.00
38241;DHT22;24037;49.536;8.500;2023-03-02T04:49:54;-2.00;1.00
38241;DHT22;24037;49.536;8.500;2023-03-02T04:52:21;-2.00;1.00
38241;DHT22;24037;49.536;8.500;2023-03-02T04:54:47;-2.00;1.00
38241;DHT22;24037;49.536;8.500;2023-03-02T04:57:13;-2.10;1.00
38241;DHT22;24037;49.536;8.500;2023-03-02T04:59:39;-2.10;1.00
38241;DHT22;24037;49.536;8.500;2023-03-02T05:02:05;-1.90;1.00
38241;DHT22;24037;49.536;8.500;2023-03-02T05:04:31;-1.90;1.00
38241;DHT22;24037;49.536;8.500;2023-03-02T05:06:57;-1.90;1.00
38241;DHT22;24037;49.536;8.500;2023-03-02T05:09:23;-2.00;1.00
38241;DHT22;24037;49.536;8.500;2023-03-02T05:11:55;-2.00;1.00
38241;DHT22;24037;49.536;8.500;2023-03-02T05:14:22;-2.10;1.00
38241;DHT22;24037;49.536;8.500;2023-03-02T05:16:48;-2.20;1.00
38241;DHT22;24037;49.536;8.500;2023-03-02T05:19:14;-2.30;1.00
38241;DHT22;24037;49.536;8.500;2023-03-02T05:21:40;-2.30;1.00
38241;DHT22;24037;49.536;8.500;2023-03-02T05:24:06;-2.30;1.00
38241;DHT22;24037;49.536;8.500;2023-03-02T05:26:32;-2.30;1.00
38241;DHT22;24037;49.536;8.500;2023-03-02T05:28:58;-2.30;1.00
38241;DHT22;24037;49.536;8.500;2023-03-02T05:31:26;-2.20;1.00
38241;DHT22;24037;49.536;8.500;2023-03-02T05:33:53;-2.10;1.00
38241;DHT22;24037;49.536;8.500;2023-03-02T05:36:19;-1.90;1.00
38241;DHT22;24037;49.536;8.500;2023-03-02T05:38:45;-1.90;1.00
38241;DHT22;24037;49.536;8.500;2023-03-02T05:41:11;-1.90;1.00
38241;DHT22;24037;49.536;8.500;2023-03-02T05:43:37;-1.80;99.90
38241;DHT22;24037;49.536;8.500;2023-03-02T05:46:03;-1.80;99.90
38241;DHT22;24037;49.536;8.500;2023-03-02T05:48:29;-1.70;99.90
38241;DHT22;24037;49.536;8.500;2023-03-02T05:50:56;-1.70;99.90
38241;DHT22;24037;49.536;8.500;2023-03-02T05:53:22;-1.70;99.90
38241;DHT22;24037;49.536;8.500;2023-03-02T05:55:48;-1.70;99.90
38241;DHT22;24037;49.536;8.500;2023-03-02T05:58:15;-1.60;99.90
38241;DHT22;24037;49.536;8.500;2023-03-02T06:00:42;-1.70;99.90
38241;DHT22;24037;49.536;8.500;2023-03-02T06:03:08;-1.60;99.90
38241;DHT22;24037;49.536;8.500;2023-03-02T06:05:34;-1.60;99.90
38241;DHT22;24037;49.536;8.500;2023-03-02T06:08:00;-1.60;99.90
38241;DHT22;24037;49.536;8.500;2023-03-02T06:10:26;-1.60;99.90
38241;DHT22;24037;49.536;8.500;2023-03-02T06:12:52;-1.50;99.90
38241;DHT22;24037;49.536;8.500;2023-03-02T06:15:18;-1.40;99.90
38241;DHT22;24037;49.536;8.500;2023-03-02T06:17:44;-1.20;99.90
38241;DHT22;24037;49.536;8.500;2023-03-02T06:20:11;-1.20;99.90
38241;DHT22;24037;49.536;8.500;2023-03-02T06:22:38;-1.10;99.90
38241;DHT22;24037;49.536;8.500;2023-03-02T06:25:09;-1.00;99.90
38241;DHT22;24037;49.536;8.500;2023-03-02T06:27:36;-1.00;99.90
38241;DHT22;24037;49.536;8.500;2023-03-02T06:30:03;-1.00;99.90
38241;DHT22;24037;49.536;8.500;2023-03-02T06:32:29;-0.90;99.90
38241;DHT22;24037;49.536;8.500;2023-03-02T06:34:59;-0.90;99.90
38241;DHT22;24037;49.536;8.500;2023-03-02T06:37:26;-0.90;99.90
38241;DHT22;24037;49.536;8.500;2023-03-02T06:39:53;-0.90;99.90
38241;DHT22;24037;49.536;8.500;2023-03-02T06:42:20;-1.00;99.90
38241;DHT22;24037;49.536;8.500;2023-03-02T06:44:46;-1.00;99.90
38241;DHT22;24037;49.536;8.500;2023-03-02T06:47:13;-1.00;99.90
38241;DHT22;24037;49.536;8.500;2023-03-02T06:49:39;-1.00;99.90
38241;DHT22;24037;49.536;8.500;2023-03-02T06:52:05;-1.00;99.90
38241;DHT22;24037;49.536;8.500;2023-03-02T06:54:35;-0.80;99.90
38241;DHT22;24037;49.536;8.500;2023-03-02T06:57:02;-0.50;99.90
38241;DHT22;24037;49.536;8.500;2023-03-02T06:59:28;0.00;99.90
38241;DHT22;24037;49.536;8.500;2023-03-02T07:01:54;0.50;99.90
38241;DHT22;24037;49.536;8.500;2023-03-02T07:04:20;1.00;99.90
38241;DHT22;24037;49.536;8.500;2023-03-02T07:06:46;1.20;99.90
38241;DHT22;24037;49.536;8.500;2023-03-02T07:09:12;1.30;99.90
38241;DHT22;24037;49.536;8.500;2023-03-02T07:11:38;1.60;99.90
38241;DHT22;24037;49.536;8.500;2023-03-02T07:14:04;1.80;99.90
38241;DHT22;24037;49.536;8.500;2023-03-02T07:16:31;2.20;99.90
38241;DHT22;24037;49.536;8.500;2023-03-02T07:18:58;2.20;99.90
38241;DHT22;24037;49.536;8.500;2023-03-02T07:21:24;2.20;99.90
38241;DHT22;24037;49.536;8.500;2023-03-02T07:23:50;2.40;99.90
38241;DHT22;24037;49.536;8.500;2023-03-02T07:26:15;2.40;99.90
38241;DHT22;24037;49.536;8.500;2023-03-02T07:28:41;2.60;99.90
38241;DHT22;24037;49.536;8.500;2023-03-02T07:31:09;2.90;99.90
38241;DHT22;24037;49.536;8.500;2023-03-02T07:33:36;2.90;99.90
38241;DHT22;24037;49.536;8.500;2023-03-02T07:36:02;2.90;99.90
38241;DHT22;24037;49.536;8.500;2023-03-02T07:38:28;3.30;99.90
38241;DHT22;24037;49.536;8.500;2023-03-02T07:40:54;3.30;99.90
38241;DHT22;24037;49.536;8.500;2023-03-02T07:43:20;3.40;99.90
38241;DHT22;24037;49.536;8.500;2023-03-02T07:45:48;3.40;99.90
38241;DHT22;24037;49.536;8.500;2023-03-02T07:48:14;3.80;99.90
38241;DHT22;24037;49.536;8.500;2023-03-02T07:50:40;4.00;99.90
38241;DHT22;24037;49.536;8.500;2023-03-02T07:53:06;4.00;99.90
38241;DHT22;24037;49.536;8.500;2023-03-02T07:55:32;4.20;99.90
38241;DHT22;24037;49.536;8.500;2023-03-02T07:57:58;4.30;99.90
38241;DHT22;24037;49.536;8.500;2023-03-02T08:00:24;3.90;99.90
38241;DHT22;24037;49.536;8.500;2023-03-02T08:02:50;3.80;99.90
38241;DHT22;24037;49.536;8.500;2023-03-02T08:05:16;4.20;99.90
38241;DHT22;24037;49.536;8.500;2023-03-02T08:07:42;4.40;99.90
38241;DHT22;24037;49.536;8.500;2023-03-02T08:10:10;4.40;99.90
38241;DHT22;24037;49.536;8.500;2023-03-02T08:12:36;4.80;99.90
38241;DHT22;24037;49.536;8.500;2023-03-02T08:15:02;4.90;99.90
38241;DHT22;24037;49.536;8.500;2023-03-02T08:17:28;5.20;99.90
38241;DHT22;24037;49.536;8.500;2023-03-02T08:19:54;5.50;99.90
38241;DHT22;24037;49.536;8.500;2023-03-02T08:22:20;5.10;99.90
38241;DHT22;24037;49.536;8.500;2023-03-02T08:24:46;5.10;99.90
38241;DHT22;24037;49.536;8.500;2023-03-02T08:27:13;5.20;99.90
38241;DHT22;24037;49.536;8.500;2023-03-02T08:29:40;5.60;99.90
38241;DHT22;24037;49.536;8.500;2023-03-02T08:32:06;6.00;99.90
38241;DHT22;24037;49.536;8.500;2023-03-02T08:34:32;5.80;99.90
38241;DHT22;24037;49.536;8.500;2023-03-02T08:36:58;6.20;99.90
38241;DHT22;24037;49.536;8.500;2023-03-02T08:39:24;7.20;99.90
38241;DHT22;24037;49.536;8.500;2023-03-02T08:41:51;7.80;99.90
38241;DHT22;24037;49.536;8.500;2023-03-02T08:44:17;7.80;99.90
38241;DHT22;24037;49.536;8.500;2023-03-02T08:46:45;8.10;99.90
38241;DHT22;24037;49.536;8.500;2023-03-02T08:49:11;8.20;99.90
38241;DHT22;24037;49.536;8.500;2023-03-02T08:51:37;7.90;99.90
38241;DHT22;24037;49.536;8.500;2023-03-02T08:54:03;8.10;99.90
38241;DHT22;24037;49.536;8.500;2023-03-02T08:56:31;8.30;99.90
38241;DHT22;24037;49.536;8.500;2023-03-02T08:58:58;8.50;99.90
38241;DHT22;24037;49.536;8.500;2023-03-02T09:01:25;8.80;99.90
38241;DHT22;24037;49.536;8.500;2023-03-02T09:03:51;8.50;99.90
38241;DHT22;24037;49.536;8.500;2023-03-02T09:06:17;9.10;99.90
38241;DHT22;24037;49.536;8.500;2023-03-02T09:08:43;8.90;99.90
38241;DHT22;24037;49.536;8.500;2023-03-02T09:11:09;9.20;99.90
38241;DHT22;24037;49.536;8.500;2023-03-02T09:13:36;9.40;99.90
38241;DHT22;24037;49.536;8.500;2023-03-02T09:16:02;8.60;99.90
38241;DHT22;24037;49.536;8.500;2023-03-02T09:18:28;9.20;99.90
38241;DHT22;24037;49.536;8.500;2023-03-02T09:20:55;8.90;99.90
38241;DHT22;24037;49.536;8.500;2023-03-02T09:23:21;8.20;99.90
38241;DHT22;24037;49.536;8.500;2023-03-02T09:25:48;8.40;99.90
38241;DHT22;24037;49.536;8.500;2023-03-02T09:28:14;8.10;99.90
38241;DHT22;24037;49.536;8.500;2023-03-02T09:30:40;7.90;99.90
38241;DHT22;24037;49.536;8.500;2023-03-02T09:33:06;8.00;99.90
38241;DHT22;24037;49.536;8.500;2023-03-02T09:35:32;7.70;99.90
38241;DHT22;24037;49.536;8.500;2023-03-02T09:37:58;8.40;99.90
38241;DHT22;24037;49.536;8.500;2023-03-02T09:40:25;8.80;99.90
38241;DHT22;24037;49.536;8.500;2023-03-02T09:45:24;9.20;99.90
38241;DHT22;24037;49.536;8.500;2023-03-02T09:50:24;8.40;99.90
38241;DHT22;24037;49.536;8.500;2023-03-02T09:53:01;8.70;99.90
38241;DHT22;24037;49.536;8.500;2023-03-02T09:55:31;9.30;99.90
38241;DHT22;24037;49.536;8.500;2023-03-02T09:57:58;9.10;99.90
38241;DHT22;24037;49.536;8.500;2023-03-02T10:00:28;8.40;99.90
38241;DHT22;24037;49.536;8.500;2023-03-02T10:03:01;8.50;99.90
38241;DHT22;24037;49.536;8.500;2023-03-02T10:05:37;8.20;99.90
38241;DHT22;24037;49.536;8.500;2023-03-02T10:08:03;8.00;99.90
38241;DHT22;24037;49.536;8.500;2023-03-02T10:13:35;7.80;99.90
38241;DHT22;24037;49.536;8.500;2023-03-02T10:16:11;7.80;99.90
38241;DHT22;24037;49.536;8.500;2023-03-02T10:18:42;7.90;99.90
38241;DHT22;24037;49.536;8.500;2023-03-02T10:23:48;8.00;99.90
38241;DHT22;24037;49.536;8.500;2023-03-02T10:31:38;8.30;99.90
38241;DHT22;24037;49.536;8.500;2023-03-02T10:34:07;8.40;99.90
38241;DHT22;24037;49.536;8.500;2023-03-02T10:36:39;8.50;99.90
38241;DHT22;24037;49.536;8.500;2023-03-02T10:39:12;8.60;99.90
38241;DHT22;24037;49.536;8.500;2023-03-02T10:41:40;8.40;99.90
38241;DHT22;24037;49.536;8.500;2023-03-02T10:44:21;8.50;99.90
38241;DHT22;24037;49.536;8.500;2023-03-02T10:46:47;8.70;99.90
38241;DHT22;24037;49.536;8.500;2023-03-02T10:49:22;8.70;99.90
38241;DHT22;24037;49.536;8.500;2023-03-02T10:51:56;8.90;99.90
38241;DHT22;24037;49.536;8.500;2023-03-02T10:54:22;9.20;99.90
38241;DHT22;24037;49.536;8.500;2023-03-02T10:56:52;9.20;99.90
38241;DHT22;24037;49.536;8.500;2023-03-02T11:02:01;9.20;99.90
38241;DHT22;24037;49.536;8.500;2023-03-02T11:04:28;9.40;99.90
38241;DHT22;24037;49.536;8.500;2023-03-02T11:06:54;9.30;99.90
38241;DHT22;24037;49.536;8.500;2023-03-02T11:09:20;9.40;99.90
38241;DHT22;24037;49.536;8.500;2023-03-02T11:11:47;9.30;99.90
38241;DHT22;24037;49.536;8.500;2023-03-02T11:14:15;9.30;99.90
38241;DHT22;24037;49.536;8.500;2023-03-02T11:16:41;9.60;99.90
38241;DHT22;24037;49.536;8.500;2023-03-02T11:19:11;9.90;99.90
38241;DHT22;24037;49.536;8.500;2023-03-02T11:24:09;9.70;99.90
38241;DHT22;24037;49.536;8.500;2023-03-02T11:31:39;9.80;99.90
38241;DHT22;24037;49.536;8.500;2023-03-02T11:39:18;9.80;99.90
38241;DHT22;24037;49.536;8.500;2023-03-02T11:41:47;9.80;99.90
38241;DHT22;24037;49.536;8.500;2023-03-02T11:44:16;9.90;99.90
38241;DHT22;24037;49.536;8.500;2023-03-02T11:46:44;10.10;99.90
38241;DHT22;24037;49.536;8.500;2023-03-02T11:49:13;10.20;99.90
38241;DHT22;24037;49.536;8.500;2023-03-02T11:51:41;10.30;99.90
38241;DHT22;24037;49.536;8.500;2023-03-02T11:54:26;10.40;99.90
38241;DHT22;24037;49.536;8.500;2023-03-02T11:56:54;10.30;99.90
38241;DHT22;24037;49.536;8.500;2023-03-02T11:59:20;10.10;99.90
38241;DHT22;24037;49.536;8.500;2023-03-02T12:01:47;10.10;99.90
38241;DHT22;24037;49.536;8.500;2023-03-02T12:04:26;10.20;99.90
38241;DHT22;24037;49.536;8.500;2023-03-02T12:06:53;10.20;99.90
38241;DHT22;24037;49.536;8.500;2023-03-02T12:11:55;10.50;99.90
38241;DHT22;24037;49.536;8.500;2023-03-02T12:19:39;10.40;99.90
38241;DHT22;24037;49.536;8.500;2023-03-02T12:22:05;10.60;99.90
38241;DHT22;24037;49.536;8.500;2023-03-02T12:24:35;10.70;99.90
38241;DHT22;24037;49.536;8.500;2023-03-02T12:27:45;10.60;99.90
38241;DHT22;24037;49.536;8.500;2023-03-02T12:32:22;10.90;99.90
38241;DHT22;24037;49.536;8.500;2023-03-02T12:37:49;10.90;99.90
38241;DHT22;24037;49.536;8.500;2023-03-02T12:40:55;11.10;99.90
38241;DHT22;24037;49.536;8.500;2023-03-02T12:46:01;10.80;99.90
38241;DHT22;24037;49.536;8.500;2023-03-02T12:48:36;10.70;99.90
38241;DHT22;24037;49.536;8.500;2023-03-02T12:51:05;10.90;99.90
38241;DHT22;24037;49.536;8.500;2023-03-02T12:53:36;10.90;99.90
38241;DHT22;24037;49.536;8.500;2023-03-02T12:56:05;11.00;99.90
38241;DHT22;24037;49.536;8.500;2023-03-02T12:58:32;11.10;99.90
38241;DHT22;24037;49.536;8.500;2023-03-02T13:00:59;11.00;99.90
38241;DHT22;24037;49.536;8.500;2023-03-02T13:03:27;11.10;99.90
38241;DHT22;24037;49.536;8.500;2023-03-02T13:06:02;11.10;99.90
38241;DHT22;24037;49.536;8.500;2023-03-02T13:08:28;11.10;99.90
38241;DHT22;24037;49.536;8.500;2023-03-02T13:10:59;11.20;99.90
38241;DHT22;24037;49.536;8.500;2023-03-02T13:15:59;11.40;99.90
38241;DHT22;24037;49.536;8.500;2023-03-02T13:18:28;11.40;99.90
38241;DHT22;24037;49.536;8.500;2023-03-02T13:20:56;11.40;99.90
38241;DHT22;24037;49.536;8.500;2023-03-02T13:23:23;11.50;99.90
38241;DHT22;24037;49.536;8.500;2023-03-02T13:25:53;11.50;99.90
38241;DHT22;24037;49.536;8.500;2023-03-02T13:28:27;11.50;99.90
38241;DHT22;24037;49.536;8.500;2023-03-02T13:31:15;11.60;99.90
38241;DHT22;24037;49.536;8.500;2023-03-02T13:33:43;11.60;99.90
38241;DHT22;24037;49.536;8.500;2023-03-02T13:36:17;11.60;99.90
38241;DHT22;24037;49.536;8.500;2023-03-02T13:38:44;11.50;99.90
38241;DHT22;24037;49.536;8.500;2023-03-02T13:41:19;11.50;99.90
38241;DHT22;24037;49.536;8.500;2023-03-02T13:43:45;11.40;99.90
38241;DHT22;24037;49.536;8.500;2023-03-02T13:48:37;11.40;99.90
38241;DHT22;24037;49.536;8.500;2023-03-02T13:51:13;11.60;99.90
38241;DHT22;24037;49.536;8.500;2023-03-02T13:53:40;11.60;99.90
38241;DHT22;24037;49.536;8.500;2023-03-02T13:56:08;11.40;99.90
38241;DHT22;24037;49.536;8.500;2023-03-02T13:58:35;11.50;99.90
38241;DHT22;24037;49.536;8.500;2023-03-02T14:01:03;11.60;99.90
38241;DHT22;24037;49.536;8.500;2023-03-02T14:03:29;11.70;99.90
38241;DHT22;24037;49.536;8.500;2023-03-02T14:05:56;11.80;99.90
38241;DHT22;24037;49.536;8.500;2023-03-02T14:08:22;11.90;99.90
38241;DHT22;24037;49.536;8.500;2023-03-02T14:10:49;12.00;99.90
38241;DHT22;24037;49.536;8.500;2023-03-02T14:13:17;12.00;99.90
38241;DHT22;24037;49.536;8.500;2023-03-02T14:15:47;12.10;99.90
38241;DHT22;24037;49.536;8.500;2023-03-02T14:20:46;12.00;99.90
38241;DHT22;24037;49.536;8.500;2023-03-02T14:23:12;12.00;99.90
38241;DHT22;24037;49.536;8.500;2023-03-02T14:25:38;12.00;99.90
38241;DHT22;24037;49.536;8.500;2023-03-02T14:28:04;12.10;99.90
38241;DHT22;24037;49.536;8.500;2023-03-02T14:30:30;12.10;99.90
38241;DHT22;24037;49.536;8.500;2023-03-02T14:32:56;12.30;99.90
38241;DHT22;24037;49.536;8.500;2023-03-02T14:35:22;12.20;99.90
38241;DHT22;24037;49.536;8.500;2023-03-02T14:37:49;12.10;99.90
38241;DHT22;24037;49.536;8.500;2023-03-02T14:40:25;12.10;99.90
38241;DHT22;24037;49.536;8.500;2023-03-02T14:42:52;12.00;99.90
38241;DHT22;24037;49.536;8.500;2023-03-02T14:45:18;12.00;99.90
38241;DHT22;24037;49.536;8.500;2023-03-02T14:47:45;12.00;99.90
38241;DHT22;24037;49.536;8.500;2023-03-02T14:50:11;12.10;99.90
38241;DHT22;24037;49.536;8.500;2023-03-02T14:52:40;12.20;99.90
38241;DHT22;24037;49.536;8.500;2023-03-02T14:55:11;12.30;99.90
38241;DHT22;24037;49.536;8.500;2023-03-02T14:57:39;12.10;99.90
38241;DHT22;24037;49.536;8.500;2023-03-02T15:00:05;12.00;99.90
38241;DHT22;24037;49.536;8.500;2023-03-02T15:02:32;12.00;99.90
38241;DHT22;24037;49.536;8.500;2023-03-02T15:04:58;12.00;99.90
38241;DHT22;24037;49.536;8.500;2023-03-02T15:07:24;12.00;99.90
38241;DHT22;24037;49.536;8.500;2023-03-02T15:09:51;12.10;99.90
38241;DHT22;24037;49.536;8.500;2023-03-02T15:12:17;12.10;99.90
38241;DHT22;24037;49.536;8.500;2023-03-02T15:14:43;12.10;99.90
38241;DHT22;24037;49.536;8.500;2023-03-02T15:17:09;12.10;99.90
38241;DHT22;24037;49.536;8.500;2023-03-02T15:19:35;12.00;99.90
38241;DHT22;24037;49.536;8.500;2023-03-02T15:22:01;12.00;99.90
38241;DHT22;24037;49.536;8.500;2023-03-02T15:24:27;12.10;99.90
38241;DHT22;24037;49.536;8.500;2023-03-02T15:26:53;12.20;99.90
38241;DHT22;24037;49.536;8.500;2023-03-02T15:29:19;12.10;99.90
38241;DHT22;24037;49.536;8.500;2023-03-02T15:31:46;12.20;99.90
38241;DHT22;24037;49.536;8.500;2023-03-02T15:34:12;12.10;99.90
38241;DHT22;24037;49.536;8.500;2023-03-02T15:36:38;12.10;99.90
38241;DHT22;24037;49.536;8.500;2023-03-02T15:39:04;12.00;99.90
38241;DHT22;24037;49.536;8.500;2023-03-02T15:41:32;12.10;99.90
38241;DHT22;24037;49.536;8.500;2023-03-02T15:43:58;12.00;99.90
38241;DHT22;24037;49.536;8.500;2023-03-02T15:46:25;12.00;99.90
38241;DHT22;24037;49.536;8.500;2023-03-02T15:48:51;12.00;99.90
38241;DHT22;24037;49.536;8.500;2023-03-02T15:51:18;12.00;99.90
38241;DHT22;24037;49.536;8.500;2023-03-02T15:53:44;12.00;99.90
38241;DHT22;24037;49.536;8.500;2023-03-02T15:56:11;12.00;99.90
38241;DHT22;24037;49.536;8.500;2023-03-02T15:58:39;12.00;99.90
38241;DHT22;24037;49.536;8.500;2023-03-02T16:01:05;11.90;99.90
38241;DHT22;24037;49.536;8.500;2023-03-02T16:03:32;11.80;99.90
38241;DHT22;24037;49.536;8.500;2023-03-02T16:05:58;11.80;99.90
38241;DHT22;24037;49.536;8.500;2023-03-02T16:08:25;11.80;99.90
38241;DHT22;24037;49.536;8.500;2023-03-02T16:10:57;11.80;99.90
38241;DHT22;24037;49.536;8.500;2023-03-02T16:13:23;11.80;99.90
38241;DHT22;24037;49.536;8.500;2023-03-02T16:15:49;11.70;99.90
38241;DHT22;24037;49.536;8.500;2023-03-02T16:18:15;11.70;99.90
38241;DHT22;24037;49.536;8.500;2023-03-02T16:20:41;11.70;99.90
38241;DHT22;24037;49.536;8.500;2023-03-02T16:23:07;11.60;99.90
38241;DHT22;24037;49.536;8.500;2023-03-02T16:25:35;11.60;99.90
38241;DHT22;24037;49.536;8.500;2023-03-02T16:28:05;11.50;99.90
38241;DHT22;24037;49.536;8.500;2023-03-02T16:30:31;11.40;99.90
38241;DHT22;24037;49.536;8.500;2023-03-02T16:32:58;11.40;99.90
38241;DHT22;24037;49.536;8.500;2023-03-02T16:35:25;11.40;99.90